createdAt,value
2018-09-15T00:01:46.335Z,10.50
2018-09-15T00:04:14.981Z,10.43
2018-09-15T00:06:43.455Z,9.70
2018-09-15T00:09:11.882Z,10.97
2018-09-15T00:11:40.338Z,12.30
2018-09-15T00:14:09.041Z,10.90
2018-09-15T00:16:37.482Z,12.20
2018-09-15T00:19:06.022Z,11.13
2018-09-15T00:21:34.493Z,11.60
2018-09-15T00:24:02.963Z,11.20
2018-09-15T00:26:31.404Z,10.90
2018-09-15T00:28:59.861Z,12.47
2018-09-15T00:31:28.314Z,10.40
2018-09-15T00:33:56.755Z,11.30
2018-09-15T00:36:25.192Z,11.40
2018-09-15T00:38:53.669Z,11.60
2018-09-15T00:41:22.107Z,10.53
2018-09-15T00:43:50.542Z,12.00
2018-09-15T00:46:18.968Z,10.37
2018-09-15T00:48:47.423Z,11.83
2018-09-15T00:51:15.854Z,10.90
2018-09-15T00:53:44.305Z,10.40
2018-09-15T00:56:12.757Z,10.90
2018-09-15T00:58:41.238Z,11.37
2018-09-15T01:01:09.662Z,10.57
2018-09-15T01:03:38.100Z,11.17
2018-09-15T01:06:06.570Z,12.17
2018-09-15T01:08:35.004Z,11.40
2018-09-15T01:11:03.453Z,10.40
2018-09-15T01:13:32.229Z,11.17
2018-09-15T01:16:00.701Z,10.17
2018-09-15T01:18:29.225Z,10.60
2018-09-15T01:20:57.715Z,10.50
2018-09-15T01:23:26.143Z,10.93
2018-09-15T01:25:55.269Z,10.23
2018-09-15T01:28:23.680Z,10.20
2018-09-15T01:30:52.105Z,11.83
2018-09-15T01:33:20.534Z,11.20
2018-09-15T01:35:48.975Z,11.20
2018-09-15T01:38:17.416Z,10.90
2018-09-15T01:40:45.854Z,10.90
2018-09-15T01:43:14.323Z,9.73
2018-09-15T01:45:42.772Z,10.90
2018-09-15T01:48:11.254Z,10.30
2018-09-15T01:50:39.684Z,9.57
2018-09-15T01:53:08.142Z,10.50
2018-09-15T01:55:36.585Z,11.07
2018-09-15T01:58:05.230Z,11.90
2018-09-15T02:00:33.686Z,10.80
2018-09-15T02:03:02.185Z,10.70
2018-09-15T02:05:30.645Z,10.90
2018-09-15T02:07:59.097Z,9.77
2018-09-15T02:10:27.539Z,11.73
2018-09-15T02:12:55.966Z,10.20
2018-09-15T02:15:24.410Z,10.50
2018-09-15T02:17:52.848Z,10.70
2018-09-15T02:20:21.318Z,11.70
2018-09-15T02:22:49.805Z,11.87
2018-09-15T02:25:18.297Z,10.50
2018-09-15T02:27:48.031Z,11.40
2018-09-15T02:30:16.496Z,9.20
2018-09-15T02:32:44.957Z,10.67
2018-09-15T02:35:13.401Z,10.43
2018-09-15T02:37:41.834Z,10.53
2018-09-15T02:40:10.269Z,10.60
2018-09-15T02:42:38.719Z,10.50
2018-09-15T02:45:07.220Z,9.70
2018-09-15T02:47:35.686Z,10.80
2018-09-15T02:50:04.553Z,10.10
2018-09-15T02:52:32.967Z,10.50
2018-09-15T02:55:01.421Z,10.13
2018-09-15T02:57:29.860Z,11.00
2018-09-15T02:59:58.536Z,9.73
2018-09-15T03:02:26.961Z,11.10
2018-09-15T03:04:56.473Z,9.80
2018-09-15T03:07:24.933Z,9.93
2018-09-15T03:09:53.398Z,11.17
2018-09-15T03:12:21.826Z,10.37
2018-09-15T03:14:50.318Z,9.40
2018-09-15T03:17:18.758Z,11.30
2018-09-15T03:19:47.237Z,9.63
2018-09-15T03:22:15.689Z,10.40
2018-09-15T03:24:44.133Z,10.80
2018-09-15T03:27:12.569Z,9.97
2018-09-15T03:29:41.036Z,10.23
2018-09-15T03:32:09.487Z,10.00
2018-09-15T03:34:37.914Z,10.37
2018-09-15T03:37:06.414Z,10.13
2018-09-15T03:39:35.197Z,10.87
2018-09-15T03:42:03.749Z,9.50
2018-09-15T03:44:32.110Z,11.10
2018-09-15T03:47:00.554Z,11.03
2018-09-15T03:49:29.217Z,10.63
2018-09-15T03:51:57.659Z,10.57
2018-09-15T03:54:26.341Z,9.90
2018-09-15T03:56:54.823Z,11.30
2018-09-15T03:59:23.277Z,11.27
2018-09-15T04:01:51.725Z,11.53
2018-09-15T04:04:20.158Z,12.00
2018-09-15T04:06:48.633Z,11.93
2018-09-15T04:09:17.060Z,11.40
2018-09-15T04:11:45.489Z,11.47
2018-09-15T04:14:13.938Z,11.10
2018-09-15T04:16:42.596Z,10.80
2018-09-15T04:19:11.066Z,11.77
2018-09-15T04:21:39.486Z,10.80
2018-09-15T04:24:07.931Z,10.23
2018-09-15T04:26:36.621Z,10.20
2018-09-15T04:29:05.078Z,11.53
2018-09-15T04:31:33.524Z,11.33
2018-09-15T04:34:01.982Z,11.40
2018-09-15T04:36:30.417Z,11.40
2018-09-15T04:38:58.903Z,11.40
2018-09-15T04:41:27.346Z,11.97
2018-09-15T04:43:56.014Z,11.80
2018-09-15T04:46:24.466Z,12.60
2018-09-15T04:48:52.911Z,10.53
2018-09-15T04:51:21.621Z,11.67
2018-09-15T04:53:50.067Z,10.60
2018-09-15T04:56:18.532Z,10.53
2018-09-15T04:58:46.972Z,12.00
2018-09-15T05:01:15.410Z,11.67
2018-09-15T05:03:43.881Z,11.90
2018-09-15T05:06:12.337Z,11.50
2018-09-15T05:08:40.770Z,11.43
2018-09-15T05:11:09.208Z,10.90
2018-09-15T05:13:37.649Z,11.17
2018-09-15T05:16:06.089Z,11.80
2018-09-15T05:18:34.585Z,11.37
2018-09-15T05:21:03.029Z,11.23
2018-09-15T05:23:31.750Z,12.40
2018-09-15T05:26:00.368Z,11.90
2018-09-15T05:28:29.034Z,12.53
2018-09-15T05:30:57.457Z,11.63
2018-09-15T05:33:25.888Z,12.80
2018-09-15T05:35:54.326Z,11.63
2018-09-15T05:38:22.809Z,11.80
2018-09-15T05:40:51.269Z,11.20
2018-09-15T05:43:19.709Z,10.90
2018-09-15T05:45:48.477Z,11.47
2018-09-15T05:48:17.161Z,11.07
2018-09-15T05:50:45.600Z,11.70
2018-09-15T05:53:14.075Z,12.30
2018-09-15T05:55:42.520Z,13.53
2018-09-15T05:58:10.946Z,12.77
2018-09-15T06:00:39.414Z,12.70
2018-09-15T06:03:07.843Z,11.50
2018-09-15T06:05:36.323Z,12.50
2018-09-15T06:08:04.901Z,13.00
2018-09-15T06:10:33.579Z,11.20
2018-09-15T06:13:02.021Z,10.87
2018-09-15T06:15:30.477Z,10.23
2018-09-15T06:17:58.893Z,12.03
2018-09-15T06:20:27.585Z,10.60
2018-09-15T06:22:56.004Z,10.30
2018-09-15T06:25:24.446Z,10.27
2018-09-15T06:27:52.873Z,11.33
2018-09-15T06:30:21.289Z,10.30
2018-09-15T06:32:49.750Z,9.90
2018-09-15T06:35:18.242Z,11.20
2018-09-15T06:37:46.797Z,10.60
2018-09-15T06:40:16.235Z,11.47
2018-09-15T06:42:44.809Z,11.83
2018-09-15T06:45:13.285Z,14.00
2018-09-15T06:47:41.763Z,12.40
2018-09-15T06:50:10.254Z,10.67
2018-09-15T06:52:40.142Z,12.13
2018-09-15T06:55:08.942Z,13.20
2018-09-15T06:57:37.652Z,11.40
2018-09-15T07:00:06.307Z,13.50
2018-09-15T07:02:34.766Z,13.03
2018-09-15T07:05:03.277Z,15.47
2018-09-15T07:07:31.753Z,12.40
2018-09-15T07:10:00.201Z,13.40
2018-09-15T07:12:28.642Z,12.13
2018-09-15T07:14:57.093Z,13.83
2018-09-15T07:17:25.528Z,12.13
2018-09-15T07:19:54.064Z,12.00
2018-09-15T07:22:22.544Z,11.43
2018-09-15T07:24:51.101Z,12.93
2018-09-15T07:27:20.308Z,13.63
2018-09-15T07:29:49.168Z,13.13
2018-09-15T07:32:17.778Z,13.27
2018-09-15T07:34:46.522Z,12.40
2018-09-15T07:37:14.923Z,13.27
2018-09-15T07:39:43.325Z,12.67
2018-09-15T07:42:11.789Z,13.10
2018-09-15T07:44:40.243Z,14.37
2018-09-15T07:47:08.809Z,12.23
2018-09-15T07:49:37.421Z,13.30
2018-09-15T07:52:05.890Z,13.20
2018-09-15T07:54:34.345Z,11.90
2018-09-15T07:57:02.857Z,11.67
2018-09-15T07:59:31.287Z,11.70
2018-09-15T08:01:59.779Z,12.87
2018-09-15T08:04:28.202Z,14.40
2018-09-15T08:06:56.678Z,13.50
2018-09-15T08:09:25.198Z,13.20
2018-09-15T08:11:53.646Z,13.43
2018-09-15T08:14:22.093Z,12.33
2018-09-15T08:16:50.508Z,13.53
2018-09-15T08:19:20.175Z,13.47
2018-09-15T08:21:49.023Z,12.87
2018-09-15T08:24:17.938Z,13.50
2018-09-15T08:26:46.422Z,12.63
2018-09-15T08:29:15.808Z,11.83
2018-09-15T08:31:44.258Z,11.43
2018-09-15T08:34:12.680Z,12.40
2018-09-15T08:36:41.585Z,12.47
2018-09-15T08:39:10.562Z,11.90
2018-09-15T08:41:39.096Z,11.20
2018-09-15T08:44:07.668Z,11.20
2018-09-15T08:46:36.182Z,10.17
2018-09-15T08:49:04.641Z,10.10
2018-09-15T08:51:33.097Z,10.53
2018-09-15T08:54:01.531Z,8.70
2018-09-15T08:56:30.181Z,8.53
2018-09-15T08:58:58.654Z,8.97
2018-09-15T09:01:27.182Z,9.33
2018-09-15T09:03:55.625Z,8.13
2018-09-15T09:06:24.500Z,8.93
2018-09-15T09:08:53.306Z,9.87
2018-09-15T09:11:21.726Z,10.80
2018-09-15T09:13:50.197Z,10.20
2018-09-15T09:16:18.649Z,9.77
2018-09-15T09:18:47.130Z,9.70
2018-09-15T09:21:15.554Z,9.00
2018-09-15T09:23:44.021Z,8.30
2018-09-15T09:26:12.534Z,9.80
2018-09-15T09:28:40.902Z,8.40
2018-09-15T09:31:09.783Z,9.10
2018-09-15T09:33:38.247Z,9.40
2018-09-15T09:36:06.725Z,9.37
2018-09-15T09:38:35.157Z,9.07
2018-09-15T09:41:03.639Z,8.47
2018-09-15T09:43:32.133Z,9.60
2018-09-15T09:46:00.591Z,8.40
2018-09-15T09:48:29.032Z,8.63
2018-09-15T09:50:57.489Z,8.77
2018-09-15T09:53:25.919Z,8.80
2018-09-15T09:55:54.420Z,9.23
2018-09-15T09:58:22.874Z,8.70
2018-09-15T10:00:56.837Z,8.47
2018-09-15T10:03:25.326Z,7.53
2018-09-15T10:05:53.781Z,7.13
2018-09-15T10:08:22.248Z,6.87
2018-09-15T10:10:50.718Z,5.70
2018-09-15T10:13:19.157Z,5.73
2018-09-15T10:15:47.588Z,5.33
2018-09-15T10:18:16.045Z,5.87
2018-09-15T10:20:45.070Z,5.90
2018-09-15T10:23:13.584Z,5.80
2018-09-15T10:25:42.003Z,5.50
2018-09-15T10:28:10.438Z,5.90
2018-09-15T10:30:38.900Z,4.83
2018-09-15T10:33:07.342Z,3.80
2018-09-15T10:35:35.810Z,4.90
2018-09-15T10:38:04.237Z,4.60
2018-09-15T10:40:32.737Z,6.90
2018-09-15T10:43:01.130Z,7.07
2018-09-15T10:45:29.557Z,7.03
2018-09-15T10:47:57.977Z,5.57
2018-09-15T10:50:26.672Z,5.20
2018-09-15T10:52:55.109Z,3.93
2018-09-15T10:55:23.645Z,4.30
2018-09-15T10:57:52.049Z,4.10
2018-09-15T11:00:20.548Z,4.00
2018-09-15T11:02:49.217Z,4.60
2018-09-15T11:05:17.694Z,3.97
2018-09-15T11:07:46.145Z,4.33
2018-09-15T11:10:14.606Z,4.37
2018-09-15T11:12:43.359Z,4.50
2018-09-15T11:15:11.791Z,4.90
2018-09-15T11:17:40.231Z,5.10
2018-09-15T11:20:08.684Z,5.40
2018-09-15T11:22:37.193Z,5.17
2018-09-15T11:25:05.697Z,4.80
2018-09-15T11:27:34.122Z,5.70
2018-09-15T11:30:02.865Z,5.87
2018-09-15T11:32:31.343Z,4.73
2018-09-15T11:35:09.273Z,5.87
2018-09-15T11:37:37.716Z,4.30
2018-09-15T11:40:06.202Z,4.07
2018-09-15T11:42:34.690Z,3.57
2018-09-15T11:45:03.109Z,3.80
2018-09-15T11:47:31.545Z,3.97
2018-09-15T11:49:59.961Z,4.57
2018-09-15T11:52:28.785Z,3.27
2018-09-15T11:54:57.230Z,3.27
2018-09-15T11:57:25.909Z,3.60
2018-09-15T11:59:54.385Z,2.90
2018-09-15T12:02:30.040Z,3.40
2018-09-15T12:04:58.646Z,3.30
2018-09-15T12:07:28.178Z,3.03
2018-09-15T12:09:57.374Z,3.80
2018-09-15T12:12:26.037Z,4.40
2018-09-15T12:14:54.477Z,3.97
2018-09-15T12:17:22.889Z,3.97
2018-09-15T12:19:51.432Z,4.33
2018-09-15T12:22:20.030Z,3.70
2018-09-15T12:24:48.474Z,3.70
2018-09-15T12:27:16.886Z,4.80
2018-09-15T12:29:45.306Z,3.90
2018-09-15T12:32:13.769Z,4.50
2018-09-15T12:34:42.559Z,3.30
2018-09-15T12:37:11.073Z,4.77
2018-09-15T12:39:39.490Z,3.80
2018-09-15T12:42:07.933Z,4.43
2018-09-15T12:44:36.359Z,3.33
2018-09-15T12:47:04.800Z,3.70
2018-09-15T12:49:33.259Z,3.67
2018-09-15T12:52:01.793Z,4.07
2018-09-15T12:54:30.389Z,3.70
2018-09-15T12:56:58.854Z,3.97
2018-09-15T12:59:27.269Z,3.50
2018-09-15T13:01:55.701Z,3.77
2018-09-15T13:04:24.110Z,3.70
2018-09-15T13:06:52.586Z,3.50
2018-09-15T13:09:21.023Z,3.50
2018-09-15T13:11:49.489Z,3.20
2018-09-15T13:14:17.935Z,3.40
2018-09-15T13:16:46.401Z,3.90
2018-09-15T13:19:14.865Z,3.90
2018-09-15T13:21:43.539Z,3.80
2018-09-15T13:24:11.984Z,3.93
2018-09-15T13:26:40.424Z,3.90
2018-09-15T13:29:08.865Z,3.60
2018-09-15T13:31:37.318Z,3.90
2018-09-15T13:34:05.866Z,4.10
2018-09-15T13:36:34.318Z,3.63
2018-09-15T13:39:02.852Z,3.53
2018-09-15T13:41:31.298Z,3.43
2018-09-15T13:43:59.778Z,3.40
2018-09-15T13:46:30.305Z,3.97
2018-09-15T13:48:58.784Z,2.90
2018-09-15T13:51:27.257Z,3.33
2018-09-15T13:53:56.610Z,3.80
2018-09-15T13:56:25.191Z,3.47
2018-09-15T13:58:53.656Z,3.37
2018-09-15T14:01:22.166Z,3.60
2018-09-15T14:03:50.600Z,3.40
2018-09-15T14:06:19.077Z,3.60
2018-09-15T14:08:47.529Z,3.20
2018-09-15T14:11:15.977Z,3.03
2018-09-15T14:13:44.629Z,3.33
2018-09-15T14:16:13.171Z,3.60
2018-09-15T14:18:41.569Z,3.47
2018-09-15T14:21:10.046Z,3.50
2018-09-15T14:23:38.610Z,3.40
2018-09-15T14:26:07.086Z,3.50
2018-09-15T14:28:35.529Z,3.17
2018-09-15T14:31:03.962Z,3.20
2018-09-15T14:33:32.410Z,3.20
2018-09-15T14:36:00.835Z,3.03
2018-09-15T14:38:29.305Z,3.17
2018-09-15T14:40:57.771Z,3.23
2018-09-15T14:43:26.237Z,2.97
2018-09-15T14:45:54.678Z,3.23
2018-09-15T14:48:23.150Z,3.53
2018-09-15T14:50:51.557Z,2.90
2018-09-15T14:53:19.996Z,3.00
2018-09-15T14:55:49.461Z,3.70
2018-09-15T14:58:17.890Z,3.50
2018-09-15T15:00:46.411Z,3.37
2018-09-15T15:03:15.472Z,3.87
2018-09-15T15:05:43.934Z,3.53
2018-09-15T15:08:12.439Z,3.60
2018-09-15T15:10:41.746Z,3.87
2018-09-15T15:13:10.148Z,3.17
2018-09-15T15:15:38.597Z,2.87
2018-09-15T15:18:07.026Z,2.93
2018-09-15T15:20:35.499Z,2.70
2018-09-15T15:23:03.958Z,2.80
2018-09-15T15:25:32.433Z,3.13
2018-09-15T15:28:00.905Z,2.93
2018-09-15T15:30:29.377Z,3.00
2018-09-15T15:32:57.807Z,3.27
2018-09-15T15:35:28.299Z,3.50
2018-09-15T15:37:56.734Z,3.80
2018-09-15T15:40:25.163Z,2.83
2018-09-15T15:42:53.622Z,4.00
2018-09-15T15:45:22.032Z,3.40
2018-09-15T15:47:50.730Z,3.73
2018-09-15T15:50:19.152Z,2.90
2018-09-15T15:52:47.594Z,3.20
2018-09-15T15:55:16.038Z,4.10
2018-09-15T15:57:44.487Z,3.83
2018-09-15T16:00:12.940Z,3.63
2018-09-15T16:02:41.377Z,3.80
2018-09-15T16:05:15.542Z,3.20
2018-09-15T16:07:44.064Z,3.57
2018-09-15T16:10:12.437Z,4.50
2018-09-15T16:12:40.890Z,4.30
2018-09-15T16:15:09.342Z,3.47
2018-09-15T16:17:37.762Z,3.27
2018-09-15T16:20:06.236Z,3.50
2018-09-15T16:22:34.691Z,4.33
2018-09-15T16:25:03.158Z,3.70
2018-09-15T16:27:31.589Z,3.73
2018-09-15T16:30:00.051Z,4.17
2018-09-15T16:32:28.509Z,5.07
2018-09-15T16:34:56.954Z,4.37
2018-09-15T16:37:25.891Z,3.83
2018-09-15T16:39:54.876Z,4.27
2018-09-15T16:42:23.358Z,3.70
2018-09-15T16:44:51.813Z,3.90
2018-09-15T16:47:20.713Z,3.83
2018-09-15T16:49:49.230Z,3.80
2018-09-15T16:52:17.674Z,3.70
2018-09-15T16:54:46.158Z,3.63
2018-09-15T16:57:14.629Z,3.80
2018-09-15T16:59:43.114Z,3.70
2018-09-15T17:02:11.601Z,3.60
2018-09-15T17:04:40.063Z,3.80
2018-09-15T17:07:08.571Z,3.73
2018-09-15T17:09:37.278Z,3.60
2018-09-15T17:12:05.760Z,3.80
2018-09-15T17:14:34.266Z,3.97
2018-09-15T17:17:02.747Z,4.17
2018-09-15T17:19:31.212Z,4.60
2018-09-15T17:21:59.947Z,4.53
2018-09-15T17:24:28.482Z,4.23
2018-09-15T17:26:56.960Z,4.50
2018-09-15T17:29:25.434Z,5.27
2018-09-15T17:31:53.874Z,4.80
2018-09-15T17:34:22.654Z,4.50
2018-09-15T17:36:51.185Z,4.53
2018-09-15T17:39:19.621Z,3.90
2018-09-15T17:41:48.486Z,3.70
2018-09-15T17:44:17.207Z,3.70
2018-09-15T17:46:45.723Z,4.63
2018-09-15T17:49:14.188Z,4.30
2018-09-15T17:51:42.683Z,4.30
2018-09-15T17:54:11.162Z,4.60
2018-09-15T17:56:40.110Z,4.27
2018-09-15T17:59:08.777Z,4.50
2018-09-15T18:01:37.571Z,4.10
2018-09-15T18:04:06.018Z,3.80
2018-09-15T18:06:34.500Z,4.80
2018-09-15T18:09:03.110Z,5.07
2018-09-15T18:11:31.599Z,5.77
2018-09-15T18:14:00.077Z,7.13
2018-09-15T18:16:28.787Z,5.33
2018-09-15T18:18:57.235Z,5.80
2018-09-15T18:21:25.737Z,5.33
2018-09-15T18:23:54.434Z,4.53
2018-09-15T18:26:23.125Z,5.03
2018-09-15T18:28:51.594Z,6.00
2018-09-15T18:31:20.051Z,5.77
2018-09-15T18:33:48.520Z,5.03
2018-09-15T18:36:17.025Z,5.23
2018-09-15T18:38:45.506Z,4.83
2018-09-15T18:41:14.222Z,4.97
2018-09-15T18:43:42.703Z,4.97
2018-09-15T18:46:11.270Z,4.90
2018-09-15T18:48:39.829Z,4.80
2018-09-15T18:51:08.744Z,5.57
2018-09-15T18:53:37.870Z,5.40
2018-09-15T18:56:06.831Z,7.40
2018-09-15T18:58:35.293Z,6.90
2018-09-15T19:01:04.879Z,10.20
2018-09-15T19:03:33.345Z,10.10
2018-09-15T19:06:01.864Z,7.80
2018-09-15T19:08:30.321Z,9.27
2018-09-15T19:10:58.783Z,6.93
2018-09-15T19:13:27.243Z,7.70
2018-09-15T19:15:55.727Z,7.60
2018-09-15T19:18:24.194Z,6.40
2018-09-15T19:20:52.669Z,5.90
2018-09-15T19:23:21.138Z,7.33
2018-09-15T19:25:49.622Z,6.90
2018-09-15T19:28:18.071Z,6.50
2018-09-15T19:30:46.531Z,6.10
2018-09-15T19:33:14.994Z,6.87
2018-09-15T19:35:43.434Z,6.90
2018-09-15T19:38:11.890Z,7.10
2018-09-15T19:40:40.352Z,7.40
2018-09-15T19:43:08.852Z,7.30
2018-09-15T19:45:37.718Z,7.30
2018-09-15T19:48:06.652Z,6.60
2018-09-15T19:50:35.106Z,6.93
2018-09-15T19:53:03.574Z,6.27
2018-09-15T19:55:32.013Z,6.20
2018-09-15T19:58:00.460Z,5.87
2018-09-15T20:00:28.974Z,6.33
2018-09-15T20:02:57.419Z,6.07
2018-09-15T20:05:25.897Z,6.70
2018-09-15T20:07:54.429Z,6.33
2018-09-15T20:10:23.138Z,7.20
2018-09-15T20:12:51.626Z,7.10
2018-09-15T20:15:24.283Z,6.60
2018-09-15T20:17:51.818Z,7.20
2018-09-15T20:20:19.604Z,6.67
2018-09-15T20:22:48.476Z,5.90
2018-09-15T20:25:17.124Z,6.23
2018-09-15T20:27:46.081Z,6.13
2018-09-15T20:30:14.673Z,6.83
2018-09-15T20:32:43.462Z,6.60
2018-09-15T20:35:11.903Z,7.00
2018-09-15T20:37:40.534Z,5.80
2018-09-15T20:40:09.906Z,6.10
2018-09-15T20:42:39.339Z,7.30
2018-09-15T20:45:08.590Z,6.70
2018-09-15T20:47:37.398Z,6.97
2018-09-15T20:50:06.279Z,7.20
2018-09-15T20:52:34.982Z,7.13
2018-09-15T20:55:03.516Z,12.80
2018-09-15T20:57:31.970Z,9.30
2018-09-15T21:00:00.418Z,5.80
2018-09-15T21:02:28.898Z,6.93
2018-09-15T21:04:57.568Z,5.50
2018-09-15T21:07:26.278Z,5.87
2018-09-15T21:09:54.747Z,10.37
2018-09-15T21:12:23.195Z,8.30
2018-09-15T21:14:51.670Z,6.60
2018-09-15T21:17:20.140Z,6.47
2018-09-15T21:19:48.626Z,5.90
2018-09-15T21:22:17.067Z,6.13
2018-09-15T21:24:45.542Z,6.43
2018-09-15T21:27:14.019Z,6.00
2018-09-15T21:29:42.473Z,6.93
2018-09-15T21:32:10.926Z,6.50
2018-09-15T21:34:39.379Z,6.43
2018-09-15T21:37:08.054Z,5.63
2018-09-15T21:39:36.552Z,6.40
2018-09-15T21:42:05.061Z,5.77
2018-09-15T21:44:33.481Z,6.90
2018-09-15T21:47:02.179Z,7.00
2018-09-15T21:49:30.866Z,7.03
2018-09-15T21:51:59.354Z,6.53
2018-09-15T21:54:27.813Z,6.57
2018-09-15T21:56:56.375Z,6.67
2018-09-15T21:59:24.802Z,6.00
2018-09-15T22:01:53.275Z,5.70
2018-09-15T22:04:24.159Z,7.03
2018-09-15T22:06:54.892Z,6.33
2018-09-15T22:09:23.442Z,6.97
2018-09-15T22:11:51.910Z,7.50
2018-09-15T22:14:20.387Z,7.23
2018-09-15T22:16:48.845Z,6.60
2018-09-15T22:19:17.308Z,6.20
2018-09-15T22:21:45.750Z,5.97
2018-09-15T22:24:14.264Z,6.47
2018-09-15T22:26:42.715Z,6.30
2018-09-15T22:29:11.181Z,6.20
2018-09-15T22:31:39.662Z,6.03
2018-09-15T22:34:10.347Z,6.90
2018-09-15T22:36:38.712Z,6.37
2018-09-15T22:39:08.640Z,7.47
2018-09-15T22:41:37.657Z,6.70
2018-09-15T22:44:06.086Z,6.63
2018-09-15T22:46:34.535Z,6.30
2018-09-15T22:49:02.998Z,7.23
2018-09-15T22:51:31.680Z,6.13
2018-09-15T22:54:00.326Z,6.87
2018-09-15T22:56:28.821Z,5.77
2018-09-15T22:58:57.278Z,6.73
2018-09-15T23:01:25.750Z,6.40
2018-09-15T23:03:59.465Z,6.40
2018-09-15T23:06:27.918Z,6.80
2018-09-15T23:08:56.365Z,6.67
2018-09-15T23:11:24.830Z,6.20
2018-09-15T23:13:53.289Z,6.77
2018-09-15T23:16:21.835Z,5.97
2018-09-15T23:18:50.504Z,6.53
2018-09-15T23:21:18.987Z,5.73
2018-09-15T23:23:47.429Z,6.90
2018-09-15T23:26:16.335Z,6.93
2018-09-15T23:28:45.035Z,7.13
2018-09-15T23:31:13.474Z,6.87
2018-09-15T23:33:41.926Z,6.23
2018-09-15T23:36:10.403Z,7.43
2018-09-15T23:38:38.946Z,7.10
2018-09-15T23:41:08.046Z,7.40
2018-09-15T23:43:36.511Z,7.13
2018-09-15T23:46:04.990Z,7.57
2018-09-15T23:48:33.458Z,7.00
2018-09-15T23:51:01.915Z,8.30
2018-09-15T23:53:30.366Z,7.47
2018-09-15T23:55:58.806Z,6.73
2018-09-15T23:58:27.265Z,6.57
